createdAt,value
2022-12-17T00:00:01.668Z,-6.31
2022-12-17T00:02:47.506Z,-6.35
2022-12-17T00:05:33.815Z,-6.28
2022-12-17T00:08:20.816Z,-6.40
2022-12-17T00:11:06.491Z,-6.42
2022-12-17T00:13:52.213Z,-6.41
2022-12-17T00:16:37.713Z,-6.43
2022-12-17T00:19:23.321Z,-6.45
2022-12-17T00:22:08.768Z,-6.58
2022-12-17T00:24:56.544Z,-6.37
2022-12-17T00:27:42.053Z,-6.37
2022-12-17T00:30:28.601Z,-6.36
2022-12-17T00:33:14.245Z,-6.35
2022-12-17T00:36:00.512Z,-6.36
2022-12-17T00:38:45.933Z,-6.40
2022-12-17T00:41:32.893Z,-6.63
2022-12-17T00:44:18.713Z,-6.51
2022-12-17T00:47:04.985Z,-6.52
2022-12-17T00:49:50.792Z,-6.54
2022-12-17T00:52:37.855Z,-6.53
2022-12-17T00:55:24.812Z,-6.51
2022-12-17T00:58:14.383Z,-6.56
2022-12-17T01:01:15.792Z,-6.46
2022-12-17T01:04:01.574Z,-6.70
2022-12-17T01:06:47.580Z,-6.36
2022-12-17T01:09:47.690Z,-6.73
2022-12-17T01:12:33.443Z,-6.28
2022-12-17T01:15:20.868Z,-6.20
2022-12-17T01:18:06.305Z,-6.23
2022-12-17T01:20:48.354Z,-6.19
2022-12-17T01:23:34.020Z,-6.44
2022-12-17T01:26:20.074Z,-6.20
2022-12-17T01:29:05.838Z,-6.46
2022-12-17T01:31:49.392Z,-6.21
2022-12-17T01:34:35.486Z,-6.27
2022-12-17T01:37:20.934Z,-6.23
2022-12-17T01:40:06.691Z,-6.20
2022-12-17T01:43:00.575Z,-6.41
2022-12-17T01:45:47.515Z,-6.56
2022-12-17T01:48:36.072Z,-6.46
2022-12-17T01:51:23.135Z,-6.38
2022-12-17T01:54:11.350Z,-6.45
2022-12-17T01:57:00.695Z,-6.72
2022-12-17T01:59:57.599Z,-6.32
2022-12-17T02:02:43.709Z,-6.32
2022-12-17T02:05:30.764Z,-6.24
2022-12-17T02:08:24.897Z,-6.23
2022-12-17T02:11:19.357Z,-6.20
2022-12-17T02:14:17.023Z,-6.31
2022-12-17T02:17:09.684Z,-6.18
2022-12-17T02:20:13.504Z,-6.00
2022-12-17T02:23:09.062Z,-5.93
2022-12-17T02:26:01.914Z,-5.82
2022-12-17T02:28:49.999Z,-5.81
2022-12-17T02:31:36.931Z,-5.86
2022-12-17T02:34:22.422Z,-5.87
2022-12-17T02:37:07.896Z,-5.68
2022-12-17T02:39:53.604Z,-5.74
2022-12-17T02:42:44.269Z,-6.09
2022-12-17T02:45:31.529Z,-5.70
2022-12-17T02:48:18.941Z,-5.65
2022-12-17T02:51:04.834Z,-5.70
2022-12-17T02:53:51.661Z,-5.71
2022-12-17T02:56:37.260Z,-5.86
2022-12-17T02:59:22.555Z,-5.85
2022-12-17T03:02:09.816Z,-5.85
2022-12-17T03:04:55.878Z,-5.87
2022-12-17T03:07:41.580Z,-5.91
2022-12-17T03:10:27.856Z,-6.18
2022-12-17T03:13:13.431Z,-5.99
2022-12-17T03:15:59.116Z,-6.01
2022-12-17T03:18:46.513Z,-5.96
2022-12-17T03:21:31.911Z,-6.04
2022-12-17T03:24:17.528Z,-6.04
2022-12-17T03:27:03.353Z,-6.33
2022-12-17T03:30:03.303Z,-6.12
2022-12-17T03:32:49.167Z,-6.09
2022-12-17T03:35:36.366Z,-6.20
2022-12-17T03:38:26.844Z,-6.29
2022-12-17T03:41:12.434Z,-6.36
2022-12-17T03:43:57.841Z,-6.44
2022-12-17T03:46:43.556Z,-6.68
2022-12-17T03:49:29.165Z,-6.55
2022-12-17T03:52:16.518Z,-6.61
2022-12-17T03:55:02.087Z,-6.70
2022-12-17T03:57:47.775Z,-6.90
2022-12-17T04:00:33.938Z,-6.80
2022-12-17T04:03:19.461Z,-7.06
2022-12-17T04:06:05.015Z,-6.85
2022-12-17T04:08:52.140Z,-6.97
2022-12-17T04:11:38.059Z,-7.01
2022-12-17T04:14:23.640Z,-7.09
2022-12-17T04:17:09.069Z,-7.09
2022-12-17T04:19:54.727Z,-7.14
2022-12-17T04:22:40.254Z,-7.15
2022-12-17T04:25:27.435Z,-7.28
2022-12-17T04:28:13.212Z,-7.22
2022-12-17T04:30:58.748Z,-7.20
2022-12-17T04:33:44.253Z,-7.31
2022-12-17T04:36:29.717Z,-7.26
2022-12-17T04:39:15.377Z,-7.54
2022-12-17T04:42:02.780Z,-7.77
2022-12-17T04:44:48.499Z,-7.60
2022-12-17T04:47:34.296Z,-7.47
2022-12-17T04:50:25.078Z,-7.69
2022-12-17T04:53:18.742Z,-7.64
2022-12-17T04:56:04.120Z,-7.57
2022-12-17T04:58:51.266Z,-7.63
2022-12-17T05:01:33.495Z,-7.64
2022-12-17T05:04:19.128Z,-7.94
2022-12-17T05:07:10.352Z,-7.64
2022-12-17T05:09:55.968Z,-7.85
2022-12-17T05:12:41.503Z,-7.83
2022-12-17T05:15:29.325Z,-7.85
2022-12-17T05:18:23.818Z,-7.97
2022-12-17T05:21:09.311Z,-7.75
2022-12-17T05:23:55.280Z,-7.81
2022-12-17T05:26:42.937Z,-7.92
2022-12-17T05:29:29.043Z,-7.80
2022-12-17T05:32:16.671Z,-7.84
2022-12-17T05:35:02.363Z,-7.91
2022-12-17T05:37:48.184Z,-7.81
2022-12-17T05:40:34.155Z,-7.85
2022-12-17T05:43:21.742Z,-7.84
2022-12-17T05:46:07.912Z,-7.82
2022-12-17T05:48:55.555Z,-7.84
2022-12-17T05:51:41.667Z,-7.91
2022-12-17T05:54:27.651Z,-8.05
2022-12-17T05:57:13.173Z,-7.85
2022-12-17T05:59:58.860Z,-7.88
2022-12-17T06:02:47.249Z,-7.91
2022-12-17T06:05:34.308Z,-7.89
2022-12-17T06:08:23.397Z,-7.85
2022-12-17T06:11:08.847Z,-7.83
2022-12-17T06:13:54.546Z,-7.82
2022-12-17T06:16:40.647Z,-7.81
2022-12-17T06:19:26.285Z,-7.83
2022-12-17T06:22:13.012Z,-7.84
2022-12-17T06:24:58.869Z,-8.02
2022-12-17T06:27:44.565Z,-7.96
2022-12-17T06:30:31.065Z,-7.97
2022-12-17T06:33:23.155Z,-7.97
2022-12-17T06:36:12.645Z,-8.15
2022-12-17T06:39:03.198Z,-7.98
2022-12-17T06:41:48.651Z,-8.04
2022-12-17T06:44:34.381Z,-8.01
2022-12-17T06:47:20.002Z,-7.93
2022-12-17T06:50:05.719Z,-8.08
2022-12-17T06:52:51.237Z,-7.93
2022-12-17T06:55:38.258Z,-7.89
2022-12-17T06:58:23.684Z,-8.02
2022-12-17T07:01:11.147Z,-8.05
2022-12-17T07:03:56.570Z,-8.09
2022-12-17T07:06:42.403Z,-8.10
2022-12-17T07:09:28.296Z,-8.19
2022-12-17T07:12:29.869Z,-8.49
2022-12-17T07:15:15.749Z,-8.21
2022-12-17T07:18:01.310Z,-8.21
2022-12-17T07:20:46.829Z,-8.27
2022-12-17T07:23:32.568Z,-8.29
2022-12-17T07:26:18.009Z,-8.54
2022-12-17T07:29:05.327Z,-8.35
2022-12-17T07:31:50.848Z,-8.33
2022-12-17T07:34:36.415Z,-8.32
2022-12-17T07:37:21.978Z,-8.29
2022-12-17T07:40:07.319Z,-8.52
2022-12-17T07:42:52.761Z,-8.23
2022-12-17T07:45:40.294Z,-8.41
2022-12-17T07:48:26.819Z,-8.15
2022-12-17T07:51:12.634Z,-8.13
2022-12-17T07:53:58.636Z,-8.16
2022-12-17T07:56:43.378Z,-8.08
2022-12-17T07:59:28.990Z,-8.25
2022-12-17T08:02:16.462Z,-8.02
2022-12-17T08:05:02.665Z,-8.13
2022-12-17T08:07:48.637Z,-8.00
2022-12-17T08:10:35.008Z,-8.11
2022-12-17T08:13:22.275Z,-7.96
2022-12-17T08:16:11.139Z,-7.94
2022-12-17T08:18:58.479Z,-8.03
2022-12-17T08:21:44.014Z,-7.93
2022-12-17T08:24:29.948Z,-7.88
2022-12-17T08:27:15.752Z,-7.83
2022-12-17T08:30:01.322Z,-7.78
2022-12-17T08:32:47.210Z,-7.76
2022-12-17T08:35:34.463Z,-7.73
2022-12-17T08:38:20.930Z,-7.69
2022-12-17T08:41:06.346Z,-7.63
2022-12-17T08:43:51.929Z,-7.58
2022-12-17T08:46:37.622Z,-7.53
2022-12-17T08:49:23.348Z,-7.70
2022-12-17T08:52:10.787Z,-7.63
2022-12-17T08:54:56.596Z,-7.48
2022-12-17T08:57:42.038Z,-7.39
2022-12-17T09:00:30.381Z,-7.28
2022-12-17T09:03:16.998Z,-7.35
2022-12-17T09:06:03.211Z,-7.16
2022-12-17T09:08:50.657Z,-7.39
2022-12-17T09:11:36.570Z,-7.11
2022-12-17T09:14:22.316Z,-6.98
2022-12-17T09:17:08.165Z,-6.98
2022-12-17T09:19:53.971Z,-6.92
2022-12-17T09:22:39.796Z,-6.78
2022-12-17T09:25:27.435Z,-6.74
2022-12-17T09:28:12.987Z,-6.66
2022-12-17T09:30:58.485Z,-6.82
2022-12-17T09:33:55.575Z,-6.52
2022-12-17T09:36:44.234Z,-6.63
2022-12-17T09:39:32.138Z,-6.48
2022-12-17T09:42:44.390Z,-6.31
2022-12-17T09:45:37.320Z,-6.25
2022-12-17T09:48:32.634Z,-6.37
2022-12-17T09:51:18.753Z,-6.16
2022-12-17T09:54:11.941Z,-6.19
2022-12-17T09:57:01.148Z,-5.96
2022-12-17T09:59:52.772Z,-5.86
2022-12-17T10:02:43.197Z,-5.88
2022-12-17T10:05:34.008Z,-5.70
2022-12-17T10:08:23.114Z,-5.60
2022-12-17T10:11:08.560Z,-5.53
2022-12-17T10:13:54.236Z,-5.42
2022-12-17T10:16:45.216Z,-5.51
2022-12-17T10:19:34.588Z,-5.07
2022-12-17T10:22:31.574Z,-4.90
2022-12-17T10:25:20.795Z,-4.75
2022-12-17T10:28:06.331Z,-4.60
2022-12-17T10:30:52.096Z,-4.47
2022-12-17T10:33:40.405Z,-4.30
2022-12-17T10:36:39.507Z,-4.18
2022-12-17T10:39:31.500Z,-4.06
2022-12-17T10:42:17.117Z,-3.93
2022-12-17T10:45:02.566Z,-4.37
2022-12-17T10:47:48.204Z,-4.22
2022-12-17T10:50:36.921Z,-3.66
2022-12-17T10:53:34.482Z,-3.70
2022-12-17T10:56:20.880Z,-3.41
2022-12-17T10:59:12.226Z,-3.34
2022-12-17T11:01:59.356Z,-3.30
2022-12-17T11:04:47.452Z,-3.25
2022-12-17T11:07:40.674Z,-3.17
2022-12-17T11:10:34.556Z,-3.25
2022-12-17T11:13:26.393Z,-3.02
2022-12-17T11:16:14.657Z,-2.96
2022-12-17T11:19:15.678Z,-2.92
2022-12-17T11:22:12.239Z,-2.76
2022-12-17T11:25:03.712Z,-2.66
2022-12-17T11:27:55.791Z,-2.80
2022-12-17T11:30:41.884Z,-2.68
2022-12-17T11:33:35.683Z,-3.07
2022-12-17T11:36:36.806Z,-2.43
2022-12-17T11:39:29.943Z,-2.23
2022-12-17T11:42:23.446Z,-2.28
2022-12-17T11:45:23.580Z,-2.27
2022-12-17T11:48:17.220Z,-2.21
2022-12-17T11:51:08.707Z,-2.48
2022-12-17T11:54:06.164Z,-2.33
2022-12-17T11:56:56.853Z,-2.32
2022-12-17T11:59:52.923Z,-2.34
2022-12-17T12:03:03.908Z,-2.40
2022-12-17T12:06:02.591Z,-2.50
2022-12-17T12:08:50.369Z,-2.49
2022-12-17T12:11:49.033Z,-2.60
2022-12-17T12:14:47.516Z,-2.57
2022-12-17T12:17:49.575Z,-2.60
2022-12-17T12:20:52.870Z,-2.66
2022-12-17T12:23:48.268Z,-2.72
2022-12-17T12:26:36.549Z,-2.80
2022-12-17T12:29:28.972Z,-2.81
2022-12-17T12:32:22.068Z,-2.96
2022-12-17T12:35:10.872Z,-3.16
2022-12-17T12:37:56.824Z,-2.99
2022-12-17T12:40:50.618Z,-3.12
2022-12-17T12:43:41.023Z,-3.30
2022-12-17T12:46:35.115Z,-3.29
2022-12-17T12:49:37.213Z,-3.06
2022-12-17T12:52:24.786Z,-3.07
2022-12-17T12:55:12.068Z,-3.28
2022-12-17T12:58:01.097Z,-3.22
2022-12-17T13:00:55.831Z,-3.27
2022-12-17T13:03:47.850Z,-3.31
2022-12-17T13:06:37.887Z,-3.64
2022-12-17T13:09:20.946Z,-3.46
2022-12-17T13:11:51.729Z,-3.53
2022-12-17T13:14:24.015Z,-3.70
2022-12-17T13:16:56.490Z,-3.65
2022-12-17T13:19:37.147Z,-3.86
2022-12-17T13:22:13.352Z,-3.68
2022-12-17T13:24:44.271Z,-3.99
2022-12-17T13:27:30.919Z,-3.77
2022-12-17T13:30:00.953Z,-4.00
2022-12-17T13:32:34.382Z,-3.88
2022-12-17T13:35:19.187Z,-3.87
2022-12-17T13:37:57.303Z,-4.01
2022-12-17T13:40:40.849Z,-4.23
2022-12-17T13:43:18.009Z,-4.02
2022-12-17T13:45:46.920Z,-4.20
2022-12-17T13:48:22.737Z,-4.06
2022-12-17T13:50:59.880Z,-4.13
2022-12-17T13:53:29.799Z,-4.14
2022-12-17T13:55:59.791Z,-4.05
2022-12-17T13:58:30.631Z,-4.10
2022-12-17T14:01:09.700Z,-4.01
2022-12-17T14:06:31.109Z,-4.00
2022-12-17T14:09:00.364Z,-4.06
2022-12-17T14:11:49.012Z,-4.07
2022-12-17T14:14:32.292Z,-4.15
2022-12-17T14:17:01.094Z,-4.21
2022-12-17T14:19:31.040Z,-4.44
2022-12-17T14:21:59.842Z,-4.26
2022-12-17T14:24:29.805Z,-4.79
2022-12-17T14:27:01.151Z,-4.35
2022-12-17T14:29:31.331Z,-4.38
2022-12-17T14:32:01.686Z,-4.56
2022-12-17T14:34:31.150Z,-4.58
2022-12-17T14:37:01.670Z,-4.77
2022-12-17T14:39:31.937Z,-4.81
2022-12-17T14:42:30.021Z,-4.52
2022-12-17T14:45:00.805Z,-4.58
2022-12-17T14:47:31.065Z,-4.69
2022-12-17T14:50:06.257Z,-4.84
2022-12-17T14:52:43.458Z,-5.19
2022-12-17T14:55:33.326Z,-4.76
2022-12-17T14:58:18.717Z,-4.94
2022-12-17T15:00:50.860Z,-5.05
2022-12-17T15:03:22.604Z,-4.76
2022-12-17T15:05:54.834Z,-4.83
2022-12-17T15:08:23.837Z,-4.74
2022-12-17T15:10:52.387Z,-4.75
2022-12-17T15:13:22.267Z,-5.12
2022-12-17T15:15:50.593Z,-5.05
2022-12-17T15:18:18.990Z,-5.13
2022-12-17T15:20:47.400Z,-5.12
2022-12-17T15:23:18.085Z,-5.01
2022-12-17T15:25:47.308Z,-5.05
2022-12-17T15:28:19.491Z,-5.10
2022-12-17T15:30:51.188Z,-5.25
2022-12-17T15:33:19.735Z,-5.47
2022-12-17T15:35:48.275Z,-5.45
2022-12-17T15:38:16.651Z,-5.42
2022-12-17T15:40:44.973Z,-5.61
2022-12-17T15:43:13.156Z,-5.57
2022-12-17T15:45:42.865Z,-5.51
2022-12-17T15:48:13.984Z,-5.73
2022-12-17T15:50:42.426Z,-5.47
2022-12-17T15:53:11.730Z,-5.97
2022-12-17T15:55:40.804Z,-5.49
2022-12-17T15:58:11.511Z,-5.52
2022-12-17T16:00:40.041Z,-5.90
2022-12-17T16:03:08.655Z,-5.76
2022-12-17T16:05:38.758Z,-5.62
2022-12-17T16:08:07.892Z,-5.67
2022-12-17T16:10:36.498Z,-5.70
2022-12-17T16:13:05.448Z,-5.75
2022-12-17T16:15:33.936Z,-5.96
2022-12-17T16:18:02.428Z,-5.84
2022-12-17T16:20:30.852Z,-5.92
2022-12-17T16:23:01.297Z,-5.86
2022-12-17T16:25:30.123Z,-6.47
2022-12-17T16:27:58.578Z,-6.16
2022-12-17T16:30:27.001Z,-6.33
2022-12-17T16:32:55.430Z,-5.99
2022-12-17T16:35:25.122Z,-6.29
2022-12-17T16:37:53.702Z,-5.98
2022-12-17T16:40:23.545Z,-6.35
2022-12-17T16:42:51.952Z,-6.08
2022-12-17T16:45:20.414Z,-6.30
2022-12-17T16:47:48.934Z,-6.16
2022-12-17T16:50:17.504Z,-6.19
2022-12-17T16:52:46.287Z,-6.19
2022-12-17T16:55:14.617Z,-6.25
2022-12-17T16:57:44.599Z,-6.41
2022-12-17T17:00:13.933Z,-6.27
2022-12-17T17:02:42.407Z,-6.31
2022-12-17T17:05:11.257Z,-6.32
2022-12-17T17:07:40.137Z,-6.33
2022-12-17T17:10:09.122Z,-6.37
2022-12-17T17:12:37.471Z,-6.40
2022-12-17T17:15:08.701Z,-6.73
2022-12-17T17:17:53.880Z,-6.58
2022-12-17T17:20:24.693Z,-6.54
2022-12-17T17:22:53.004Z,-7.10
2022-12-17T17:25:21.458Z,-6.55
2022-12-17T17:27:49.803Z,-6.57
2022-12-17T17:30:19.773Z,-6.60
2022-12-17T17:32:48.245Z,-6.65
2022-12-17T17:35:16.861Z,-6.65
2022-12-17T17:37:45.172Z,-6.72
2022-12-17T17:40:14.880Z,-7.20
2022-12-17T17:42:46.145Z,-6.77
2022-12-17T17:45:20.000Z,-7.39
2022-12-17T17:47:48.676Z,-7.18
2022-12-17T17:50:17.021Z,-6.87
2022-12-17T17:52:45.459Z,-6.90
2022-12-17T17:55:13.777Z,-7.23
2022-12-17T17:57:42.091Z,-7.00
2022-12-17T18:00:11.909Z,-6.90
2022-12-17T18:02:42.278Z,-7.08
2022-12-17T18:05:11.411Z,-6.94
2022-12-17T18:07:40.048Z,-7.07
2022-12-17T18:10:09.605Z,-7.65
2022-12-17T18:12:55.580Z,-6.98
2022-12-17T18:15:23.837Z,-6.98
2022-12-17T18:17:53.712Z,-6.99
2022-12-17T18:20:22.068Z,-7.51
2022-12-17T18:22:50.684Z,-7.18
2022-12-17T18:25:19.414Z,-7.14
2022-12-17T18:27:47.969Z,-7.05
2022-12-17T18:30:17.234Z,-7.13
2022-12-17T18:32:45.720Z,-7.05
2022-12-17T18:35:15.496Z,-7.18
2022-12-17T18:37:43.929Z,-7.09
2022-12-17T18:40:13.003Z,-7.56
2022-12-17T18:42:58.893Z,-7.11
2022-12-17T18:45:27.345Z,-7.13
2022-12-17T18:47:55.868Z,-7.15
2022-12-17T18:50:25.676Z,-7.18
2022-12-17T18:52:54.050Z,-7.18
2022-12-17T18:55:22.403Z,-7.37
2022-12-17T18:57:50.751Z,-7.22
2022-12-17T19:00:19.456Z,-7.32
2022-12-17T19:02:47.903Z,-7.25
2022-12-17T19:05:16.710Z,-7.26
2022-12-17T19:07:46.514Z,-7.29
2022-12-17T19:10:14.862Z,-7.50
2022-12-17T19:12:43.249Z,-7.67
2022-12-17T19:15:12.113Z,-7.86
2022-12-17T19:17:40.485Z,-7.50
2022-12-17T19:20:10.129Z,-7.56
2022-12-17T19:22:38.556Z,-7.60
2022-12-17T19:25:08.967Z,-7.65
2022-12-17T19:27:37.296Z,-7.92
2022-12-17T19:30:06.750Z,-7.83
2022-12-17T19:32:35.156Z,-7.74
2022-12-17T19:35:03.635Z,-7.77
2022-12-17T19:37:31.993Z,-7.74
2022-12-17T19:40:00.367Z,-8.43
2022-12-17T19:42:36.707Z,-7.86
2022-12-17T19:45:06.350Z,-8.22
2022-12-17T19:47:34.809Z,-8.15
2022-12-17T19:50:03.202Z,-7.97
2022-12-17T19:52:31.705Z,-8.00
2022-12-17T19:55:00.039Z,-8.16
2022-12-17T19:57:29.896Z,-8.34
2022-12-17T19:59:58.253Z,-8.09
2022-12-17T20:02:32.328Z,-8.22
2022-12-17T20:05:01.243Z,-8.11
2022-12-17T20:07:29.886Z,-8.28
2022-12-17T20:09:58.173Z,-8.20
2022-12-17T20:12:26.674Z,-8.16
2022-12-17T20:14:56.711Z,-8.19
2022-12-17T20:17:26.193Z,-8.21
2022-12-17T20:19:57.941Z,-8.23
2022-12-17T20:22:26.432Z,-8.26
2022-12-17T20:24:54.755Z,-8.26
2022-12-17T20:27:23.613Z,-8.29
2022-12-17T20:29:51.921Z,-8.31
2022-12-17T20:32:22.047Z,-8.32
2022-12-17T20:34:51.699Z,-8.46
2022-12-17T20:37:20.492Z,-8.33
2022-12-17T20:39:49.190Z,-8.37
2022-12-17T20:42:18.400Z,-8.42
2022-12-17T20:44:53.102Z,-8.43
2022-12-17T20:47:23.308Z,-8.58
2022-12-17T20:49:51.626Z,-8.66
2022-12-17T20:52:19.930Z,-8.56
2022-12-17T20:54:49.495Z,-8.50
2022-12-17T20:57:17.988Z,-8.52
2022-12-17T20:59:46.649Z,-8.80
2022-12-17T21:02:15.021Z,-8.56
2022-12-17T21:04:44.969Z,-8.58
2022-12-17T21:07:13.605Z,-8.58
2022-12-17T21:09:42.179Z,-8.61
2022-12-17T21:12:12.525Z,-8.90
2022-12-17T21:14:40.934Z,-8.57
2022-12-17T21:17:09.811Z,-9.01
2022-12-17T21:19:38.435Z,-8.54
2022-12-17T21:22:08.903Z,-8.74
2022-12-17T21:24:39.045Z,-9.15
2022-12-17T21:27:14.342Z,-8.83
2022-12-17T21:29:43.238Z,-8.78
2022-12-17T21:32:11.641Z,-8.70
2022-12-17T21:34:40.076Z,-8.73
2022-12-17T21:37:11.365Z,-8.75
2022-12-17T21:39:40.016Z,-9.22
2022-12-17T21:42:25.566Z,-8.72
2022-12-17T21:44:53.945Z,-8.75
2022-12-17T21:47:22.432Z,-8.75
2022-12-17T21:49:51.081Z,-8.96
2022-12-17T21:52:20.816Z,-8.76
2022-12-17T21:54:49.498Z,-8.87
2022-12-17T21:57:18.299Z,-9.48
2022-12-17T21:59:46.657Z,-8.77
2022-12-17T22:02:15.215Z,-8.80
2022-12-17T22:04:43.659Z,-8.85
2022-12-17T22:07:20.402Z,-9.20
2022-12-17T22:10:11.732Z,-8.83
2022-12-17T22:13:07.366Z,-8.94
2022-12-17T22:15:47.216Z,-8.91
2022-12-17T22:18:16.960Z,-8.90
2022-12-17T22:20:45.308Z,-9.26
2022-12-17T22:23:13.732Z,-9.22
2022-12-17T22:25:43.878Z,-9.12
2022-12-17T22:28:12.469Z,-9.36
2022-12-17T22:30:59.231Z,-8.92
2022-12-17T22:33:58.177Z,-9.10
2022-12-17T22:38:48.929Z,-9.01
2022-12-17T22:43:00.096Z,-9.04
2022-12-17T22:44:40.754Z,-9.04
2022-12-17T22:45:09.988Z,-9.37
2022-12-17T22:47:39.664Z,-9.18
2022-12-17T22:50:08.557Z,-9.31
2022-12-17T22:52:37.519Z,-9.06
2022-12-17T22:55:07.555Z,-9.17
2022-12-17T22:57:38.625Z,-9.07
2022-12-17T23:00:14.294Z,-9.03
2022-12-17T23:02:42.754Z,-9.06
2022-12-17T23:05:11.373Z,-9.34
2022-12-17T23:07:40.094Z,-9.03
2022-12-17T23:10:09.002Z,-9.04
2022-12-17T23:12:55.141Z,-9.05
2022-12-17T23:15:27.590Z,-9.31
2022-12-17T23:17:57.890Z,-9.19
2022-12-17T23:20:27.552Z,-9.39
2022-12-17T23:22:56.064Z,-10.47
2022-12-17T23:25:24.924Z,-9.24
2022-12-17T23:27:55.705Z,-9.23
2022-12-17T23:30:24.232Z,-9.82
2022-12-17T23:32:52.825Z,-9.64
2022-12-17T23:35:21.914Z,-9.80
2022-12-17T23:37:50.864Z,-9.28
2022-12-17T23:40:19.381Z,-9.25
2022-12-17T23:42:48.078Z,-9.25
2022-12-17T23:45:17.917Z,-9.27
2022-12-17T23:47:46.226Z,-10.74
2022-12-17T23:50:14.612Z,-9.53
2022-12-17T23:52:43.097Z,-9.79
2022-12-17T23:55:12.238Z,-9.62
2022-12-17T23:57:40.708Z,-9.27
